Scandia, Pennsylvania
Current Conditions -  °F | °C
As of 9:55 AM on Wednesday 22 Oct 2014 (Local Time) from KJHW Reporting Station
Overcast Overcast  
Wind Chill: 35°   Ceiling: 300
Heat Index: 41°   Visibility: 2mi
Dew Point: 37°   Wind: 10mph
Humidity: 87%   Direction: 350°N
Pressure: 30.19"   Gusts: NA
Location:  41.9507°N, 79.0368°W
Report Text: KJHW 221355Z AUTO 35009KT 2SM OVC003 05/03 A3019 RMK AO1
Loading
Personal Weather Stations






























Interactive Weather Map
Tropical Storm Tracking
New forecast layout! Learn more

10-Day Weather Forecast

Advertisements
Track Severe Weather on mobile